sensor_id;sensor_type;location;lat;lon;timestamp;pressure;altitude;pressure_sealevel;temperature;humidity
11542;BME280;5827;49.482;7.716;2023-02-14T00:00:34;100644.44;;;1.08;100.00
11542;BME280;5827;49.482;7.716;2023-02-14T00:02:36;100648.22;;;1.15;100.00
11542;BME280;5827;49.482;7.716;2023-02-14T00:04:37;100648.50;;;1.12;100.00
11542;BME280;5827;49.482;7.716;2023-02-14T00:06:43;100643.19;;;1.02;100.00
11542;BME280;5827;49.482;7.716;2023-02-14T00:08:45;100647.38;;;1.14;100.00
11542;BME280;5827;49.482;7.716;2023-02-14T00:10:46;100641.13;;;1.06;100.00
11542;BME280;5827;49.482;7.716;2023-02-14T00:12:49;100640.41;;;0.94;100.00
11542;BME280;5827;49.482;7.716;2023-02-14T00:14:51;100642.78;;;0.97;100.00
11542;BME280;5827;49.482;7.716;2023-02-14T00:17:10;100644.81;;;0.84;100.00
11542;BME280;5827;49.482;7.716;2023-02-14T00:19:12;100635.53;;;0.89;100.00
11542;BME280;5827;49.482;7.716;2023-02-14T00:21:14;100642.75;;;0.87;100.00
11542;BME280;5827;49.482;7.716;2023-02-14T00:23:16;100638.38;;;0.76;100.00
11542;BME280;5827;49.482;7.716;2023-02-14T00:25:17;100637.19;;;1.00;100.00
11542;BME280;5827;49.482;7.716;2023-02-14T00:27:19;100641.97;;;1.06;100.00
11542;BME280;5827;49.482;7.716;2023-02-14T00:29:23;100634.03;;;1.06;100.00
11542;BME280;5827;49.482;7.716;2023-02-14T00:31:25;100630.13;;;1.00;100.00
11542;BME280;5827;49.482;7.716;2023-02-14T00:33:26;100633.72;;;0.99;100.00
11542;BME280;5827;49.482;7.716;2023-02-14T00:35:28;100620.53;;;0.99;100.00
11542;BME280;5827;49.482;7.716;2023-02-14T00:37:29;100627.88;;;0.96;100.00
11542;BME280;5827;49.482;7.716;2023-02-14T00:39:31;100618.44;;;0.84;100.00
11542;BME280;5827;49.482;7.716;2023-02-14T00:41:33;100625.63;;;0.82;100.00
11542;BME280;5827;49.482;7.716;2023-02-14T00:43:34;100626.19;;;0.85;100.00
11542;BME280;5827;49.482;7.716;2023-02-14T00:45:37;100628.97;;;0.84;100.00
11542;BME280;5827;49.482;7.716;2023-02-14T00:47:39;100631.19;;;0.79;100.00
11542;BME280;5827;49.482;7.716;2023-02-14T00:49:40;100638.28;;;0.78;100.00
11542;BME280;5827;49.482;7.716;2023-02-14T00:51:42;100632.28;;;0.76;100.00
11542;BME280;5827;49.482;7.716;2023-02-14T00:53:44;100633.13;;;0.76;100.00
11542;BME280;5827;49.482;7.716;2023-02-14T00:55:46;100635.16;;;0.63;100.00
11542;BME280;5827;49.482;7.716;2023-02-14T00:57:47;100631.16;;;0.69;100.00
11542;BME280;5827;49.482;7.716;2023-02-14T00:59:49;100634.75;;;0.68;100.00
11542;BME280;5827;49.482;7.716;2023-02-14T01:01:52;100635.16;;;0.63;100.00
11542;BME280;5827;49.482;7.716;2023-02-14T01:03:53;100632.25;;;0.66;100.00
11542;BME280;5827;49.482;7.716;2023-02-14T01:05:55;100642.25;;;0.72;100.00
11542;BME280;5827;49.482;7.716;2023-02-14T01:07:56;100645.28;;;0.68;100.00
11542;BME280;5827;49.482;7.716;2023-02-14T01:09:58;100645.19;;;0.69;100.00
11542;BME280;5827;49.482;7.716;2023-02-14T01:12:00;100639.06;;;0.69;100.00
11542;BME280;5827;49.482;7.716;2023-02-14T01:14:01;100643.84;;;0.54;100.00
11542;BME280;5827;49.482;7.716;2023-02-14T01:16:05;100643.84;;;0.54;100.00
11542;BME280;5827;49.482;7.716;2023-02-14T01:18:08;100642.84;;;0.45;100.00
11542;BME280;5827;49.482;7.716;2023-02-14T01:20:10;100647.56;;;0.42;100.00
11542;BME280;5827;49.482;7.716;2023-02-14T01:22:12;100643.38;;;0.39;100.00
11542;BME280;5827;49.482;7.716;2023-02-14T01:24:13;100648.91;;;0.36;100.00
11542;BME280;5827;49.482;7.716;2023-02-14T01:26:15;100649.88;;;0.35;100.00
11542;BME280;5827;49.482;7.716;2023-02-14T01:28:17;100649.28;;;0.32;100.00
11542;BME280;5827;49.482;7.716;2023-02-14T01:30:19;100646.72;;;0.41;100.00
11542;BME280;5827;49.482;7.716;2023-02-14T01:32:20;100640.06;;;0.37;100.00
11542;BME280;5827;49.482;7.716;2023-02-14T01:34:23;100646.66;;;0.32;100.00
11542;BME280;5827;49.482;7.716;2023-02-14T01:36:27;100640.44;;;0.33;100.00
11542;BME280;5827;49.482;7.716;2023-02-14T01:38:29;100632.66;;;0.31;100.00
11542;BME280;5827;49.482;7.716;2023-02-14T01:40:31;100634.34;;;0.32;100.00
11542;BME280;5827;49.482;7.716;2023-02-14T01:42:34;100630.16;;;0.30;100.00
11542;BME280;5827;49.482;7.716;2023-02-14T01:44:57;100633.44;;;0.22;100.00
11542;BME280;5827;49.482;7.716;2023-02-14T01:46:59;100633.88;;;0.27;100.00
11542;BME280;5827;49.482;7.716;2023-02-14T01:49:07;100630.63;;;0.14;100.00
11542;BME280;5827;49.482;7.716;2023-02-14T01:51:11;100631.84;;;0.10;100.00
11542;BME280;5827;49.482;7.716;2023-02-14T01:53:16;100632.09;;;0.07;100.00
11542;BME280;5827;49.482;7.716;2023-02-14T01:55:22;100630.69;;;0.03;100.00
11542;BME280;5827;49.482;7.716;2023-02-14T01:57:27;100620.69;;;-0.04;100.00
11542;BME280;5827;49.482;7.716;2023-02-14T01:59:35;100628.50;;;0.08;100.00
11542;BME280;5827;49.482;7.716;2023-02-14T02:01:37;100627.13;;;0.13;100.00
11542;BME280;5827;49.482;7.716;2023-02-14T02:03:43;100632.41;;;0.13;100.00
11542;BME280;5827;49.482;7.716;2023-02-14T02:05:50;100623.63;;;0.03;100.00
11542;BME280;5827;49.482;7.716;2023-02-14T02:07:56;100633.53;;;0.11;100.00
11542;BME280;5827;49.482;7.716;2023-02-14T02:10:03;100623.41;;;0.16;100.00
11542;BME280;5827;49.482;7.716;2023-02-14T02:12:05;100628.00;;;0.14;100.00
11542;BME280;5827;49.482;7.716;2023-02-14T02:14:11;100622.84;;;0.12;100.00
11542;BME280;5827;49.482;7.716;2023-02-14T02:16:25;100626.69;;;0.08;100.00
11542;BME280;5827;49.482;7.716;2023-02-14T02:18:39;100622.84;;;0.12;100.00
11542;BME280;5827;49.482;7.716;2023-02-14T02:21:01;100621.31;;;0.10;100.00
11542;BME280;5827;49.482;7.716;2023-02-14T02:23:49;100622.53;;;0.06;100.00
11542;BME280;5827;49.482;7.716;2023-02-14T02:28:38;100621.56;;;0.07;100.00
11542;BME280;5827;49.482;7.716;2023-02-14T02:31:06;100615.03;;;0.01;100.00
11542;BME280;5827;49.482;7.716;2023-02-14T02:33:35;100617.53;;;0.03;100.00
11542;BME280;5827;49.482;7.716;2023-02-14T02:35:52;100616.00;;;0.00;100.00
11542;BME280;5827;49.482;7.716;2023-02-14T02:38:05;100609.88;;;-0.01;100.00
11542;BME280;5827;49.482;7.716;2023-02-14T02:40:24;100611.75;;;-0.12;100.00
11542;BME280;5827;49.482;7.716;2023-02-14T02:42:34;100612.06;;;-0.06;100.00
11542;BME280;5827;49.482;7.716;2023-02-14T02:44:43;100614.03;;;-0.19;100.00
11542;BME280;5827;49.482;7.716;2023-02-14T02:46:53;100616.19;;;-0.13;100.00
11542;BME280;5827;49.482;7.716;2023-02-14T02:48:58;100621.13;;;-0.19;100.00
11542;BME280;5827;49.482;7.716;2023-02-14T02:51:07;100613.50;;;-0.22;100.00
11542;BME280;5827;49.482;7.716;2023-02-14T02:53:33;100620.09;;;-0.07;100.00
11542;BME280;5827;49.482;7.716;2023-02-14T02:55:42;100628.59;;;-0.04;100.00
11542;BME280;5827;49.482;7.716;2023-02-14T02:58:01;100628.06;;;0.03;100.00
11542;BME280;5827;49.482;7.716;2023-02-14T03:00:05;100621.81;;;0.04;100.00
11542;BME280;5827;49.482;7.716;2023-02-14T03:02:12;100622.94;;;0.01;100.00
11542;BME280;5827;49.482;7.716;2023-02-14T03:04:15;100618.75;;;-0.02;100.00
11542;BME280;5827;49.482;7.716;2023-02-14T03:06:37;100622.59;;;-0.06;100.00
11542;BME280;5827;49.482;7.716;2023-02-14T03:08:39;100615.91;;;-0.10;100.00
11542;BME280;5827;49.482;7.716;2023-02-14T03:10:40;100612.59;;;-0.12;100.00
11542;BME280;5827;49.482;7.716;2023-02-14T03:13:24;100615.59;;;-0.16;100.00
11542;BME280;5827;49.482;7.716;2023-02-14T03:15:53;100617.34;;;-0.27;100.00
11542;BME280;5827;49.482;7.716;2023-02-14T03:18:06;100614.88;;;-0.39;100.00
11542;BME280;5827;49.482;7.716;2023-02-14T03:20:16;100613.31;;;-0.42;100.00
11542;BME280;5827;49.482;7.716;2023-02-14T03:22:30;100607.75;;;-0.28;100.00
11542;BME280;5827;49.482;7.716;2023-02-14T03:24:43;100616.38;;;-0.26;100.00
11542;BME280;5827;49.482;7.716;2023-02-14T03:26:48;100608.91;;;-0.20;100.00
11542;BME280;5827;49.482;7.716;2023-02-14T03:28:57;100615.66;;;-0.28;100.00
11542;BME280;5827;49.482;7.716;2023-02-14T03:31:06;100607.81;;;-0.39;100.00
11542;BME280;5827;49.482;7.716;2023-02-14T03:33:13;100606.84;;;-0.38;100.00
11542;BME280;5827;49.482;7.716;2023-02-14T03:35:21;100612.94;;;-0.37;100.00
11542;BME280;5827;49.482;7.716;2023-02-14T03:37:30;100613.66;;;-0.35;100.00
11542;BME280;5827;49.482;7.716;2023-02-14T03:39:38;100622.25;;;-0.33;100.00
11542;BME280;5827;49.482;7.716;2023-02-14T03:41:47;100625.28;;;-0.38;100.00
11542;BME280;5827;49.482;7.716;2023-02-14T03:43:53;100618.53;;;-0.52;100.00
11542;BME280;5827;49.482;7.716;2023-02-14T03:45:59;100623.84;;;-0.42;100.00
11542;BME280;5827;49.482;7.716;2023-02-14T03:48:06;100621.44;;;-0.55;100.00
11542;BME280;5827;49.482;7.716;2023-02-14T03:50:13;100623.13;;;-0.65;100.00
11542;BME280;5827;49.482;7.716;2023-02-14T03:52:17;100622.66;;;-0.70;100.00
11542;BME280;5827;49.482;7.716;2023-02-14T03:54:22;100629.09;;;-0.63;100.00
11542;BME280;5827;49.482;7.716;2023-02-14T03:56:29;100622.50;;;-0.57;100.00
11542;BME280;5827;49.482;7.716;2023-02-14T03:58:36;100630.63;;;-0.60;100.00
11542;BME280;5827;49.482;7.716;2023-02-14T04:00:40;100628.00;;;-0.60;100.00
11542;BME280;5827;49.482;7.716;2023-02-14T04:02:45;100621.22;;;-0.63;100.00
11542;BME280;5827;49.482;7.716;2023-02-14T04:04:49;100624.47;;;-0.70;100.00
11542;BME280;5827;49.482;7.716;2023-02-14T04:06:51;100625.06;;;-0.67;100.00
11542;BME280;5827;49.482;7.716;2023-02-14T04:08:53;100624.22;;;-0.67;100.00
11542;BME280;5827;49.482;7.716;2023-02-14T04:10:59;100620.47;;;-0.65;100.00
11542;BME280;5827;49.482;7.716;2023-02-14T04:13:01;100623.50;;;-0.69;100.00
11542;BME280;5827;49.482;7.716;2023-02-14T04:15:03;100629.13;;;-0.74;100.00
11542;BME280;5827;49.482;7.716;2023-02-14T04:17:05;100628.38;;;-0.65;100.00
11542;BME280;5827;49.482;7.716;2023-02-14T04:19:25;100624.91;;;-0.65;100.00
11542;BME280;5827;49.482;7.716;2023-02-14T04:21:26;100623.56;;;-0.60;100.00
11542;BME280;5827;49.482;7.716;2023-02-14T04:23:28;100623.34;;;-0.57;100.00
11542;BME280;5827;49.482;7.716;2023-02-14T04:25:29;100616.03;;;-0.53;100.00
11542;BME280;5827;49.482;7.716;2023-02-14T04:27:32;100624.63;;;-0.51;100.00
11542;BME280;5827;49.482;7.716;2023-02-14T04:29:34;100624.38;;;-0.48;100.00
11542;BME280;5827;49.482;7.716;2023-02-14T04:31:36;100616.84;;;-0.53;100.00
11542;BME280;5827;49.482;7.716;2023-02-14T04:33:38;100615.88;;;-0.52;100.00
11542;BME280;5827;49.482;7.716;2023-02-14T04:35:40;100623.34;;;-0.57;100.00
11542;BME280;5827;49.482;7.716;2023-02-14T04:37:42;100618.66;;;-0.53;100.00
11542;BME280;5827;49.482;7.716;2023-02-14T04:39:43;100620.56;;;-0.55;100.00
11542;BME280;5827;49.482;7.716;2023-02-14T04:41:45;100622.13;;;-0.53;100.00
11542;BME280;5827;49.482;7.716;2023-02-14T04:43:48;100615.88;;;-0.52;100.00
11542;BME280;5827;49.482;7.716;2023-02-14T04:45:49;100622.94;;;-0.52;100.00
11542;BME280;5827;49.482;7.716;2023-02-14T04:47:50;100619.88;;;-0.57;100.00
11542;BME280;5827;49.482;7.716;2023-02-14T04:49:52;100612.22;;;-0.60;100.00
11542;BME280;5827;49.482;7.716;2023-02-14T04:51:53;100617.00;;;-0.54;100.00
11542;BME280;5827;49.482;7.716;2023-02-14T04:53:55;100620.56;;;-0.55;100.00
11542;BME280;5827;49.482;7.716;2023-02-14T04:55:56;100616.03;;;-0.53;100.00
11542;BME280;5827;49.482;7.716;2023-02-14T04:57:58;100611.34;;;-0.49;100.00
11542;BME280;5827;49.482;7.716;2023-02-14T05:00:01;100610.25;;;-0.47;100.00
11542;BME280;5827;49.482;7.716;2023-02-14T05:02:02;100612.03;;;-0.47;100.00
11542;BME280;5827;49.482;7.716;2023-02-14T05:04:04;100608.34;;;-0.45;100.00
11542;BME280;5827;49.482;7.716;2023-02-14T05:06:05;100607.59;;;-0.47;100.00
11542;BME280;5827;49.482;7.716;2023-02-14T05:08:07;100610.59;;;-0.40;100.00
11542;BME280;5827;49.482;7.716;2023-02-14T05:10:09;100605.31;;;-0.40;100.00
11542;BME280;5827;49.482;7.716;2023-02-14T05:12:11;100598.63;;;-0.44;100.00
11542;BME280;5827;49.482;7.716;2023-02-14T05:14:12;100600.06;;;-0.40;100.00
11542;BME280;5827;49.482;7.716;2023-02-14T05:16:15;100597.66;;;-0.43;100.00
11542;BME280;5827;49.482;7.716;2023-02-14T05:18:17;100602.47;;;-0.48;100.00
11542;BME280;5827;49.482;7.716;2023-02-14T05:20:18;100603.56;;;-0.51;100.00
11542;BME280;5827;49.482;7.716;2023-02-14T05:22:19;100605.94;;;-0.48;100.00
11542;BME280;5827;49.482;7.716;2023-02-14T05:24:21;100608.34;;;-0.45;100.00
11542;BME280;5827;49.482;7.716;2023-02-14T05:26:23;100604.50;;;-0.41;100.00
11542;BME280;5827;49.482;7.716;2023-02-14T05:28:24;100600.06;;;-0.40;100.00
11542;BME280;5827;49.482;7.716;2023-02-14T05:30:25;100608.78;;;-0.40;100.00
11542;BME280;5827;49.482;7.716;2023-02-14T05:32:29;100604.97;;;-0.47;100.00
11542;BME280;5827;49.482;7.716;2023-02-14T05:34:30;100600.38;;;-0.55;100.00
11542;BME280;5827;49.482;7.716;2023-02-14T05:36:32;100602.13;;;-0.55;100.00
11542;BME280;5827;49.482;7.716;2023-02-14T05:38:33;100602.72;;;-0.52;100.00
11542;BME280;5827;49.482;7.716;2023-02-14T05:40:35;100601.75;;;-0.51;100.00
11542;BME280;5827;49.482;7.716;2023-02-14T05:42:36;100604.00;;;-0.46;100.00
11542;BME280;5827;49.482;7.716;2023-02-14T05:44:38;100605.81;;;-0.46;100.00
11542;BME280;5827;49.482;7.716;2023-02-14T05:46:39;100605.81;;;-0.46;100.00
11542;BME280;5827;49.482;7.716;2023-02-14T05:48:42;100602.34;;;-0.47;100.00
11542;BME280;5827;49.482;7.716;2023-02-14T05:50:45;100604.75;;;-0.55;100.00
11542;BME280;5827;49.482;7.716;2023-02-14T05:52:46;100606.63;;;-0.67;100.00
11542;BME280;5827;49.482;7.716;2023-02-14T05:54:48;100608.75;;;-0.61;100.00
11542;BME280;5827;49.482;7.716;2023-02-14T05:56:50;100615.22;;;-0.65;100.00
11542;BME280;5827;49.482;7.716;2023-02-14T05:58:51;100614.53;;;-0.67;100.00
11542;BME280;5827;49.482;7.716;2023-02-14T06:00:53;100618.50;;;-0.72;100.00
11542;BME280;5827;49.482;7.716;2023-02-14T06:02:56;100611.06;;;-0.46;100.00
11542;BME280;5827;49.482;7.716;2023-02-14T06:04:58;100610.31;;;-0.37;100.00
11542;BME280;5827;49.482;7.716;2023-02-14T06:07:00;100620.16;;;-0.39;100.00
11542;BME280;5827;49.482;7.716;2023-02-14T06:09:04;100623.63;;;-0.39;100.00
11542;BME280;5827;49.482;7.716;2023-02-14T06:11:05;100622.56;;;-0.47;100.00
11542;BME280;5827;49.482;7.716;2023-02-14T06:13:07;100617.13;;;-0.35;100.00
11542;BME280;5827;49.482;7.716;2023-02-14T06:15:10;100623.09;;;-0.33;100.00
11542;BME280;5827;49.482;7.716;2023-02-14T06:17:11;100621.88;;;-0.29;100.00
11542;BME280;5827;49.482;7.716;2023-02-14T06:19:13;100620.25;;;-0.62;100.00
11542;BME280;5827;49.482;7.716;2023-02-14T06:21:16;100619.50;;;-0.85;100.00
11542;BME280;5827;49.482;7.716;2023-02-14T06:23:17;100617.41;;;-0.70;100.00
11542;BME280;5827;49.482;7.716;2023-02-14T06:25:19;100624.16;;;-0.56;100.00
11542;BME280;5827;49.482;7.716;2023-02-14T06:27:21;100623.75;;;-0.40;100.00
11542;BME280;5827;49.482;7.716;2023-02-14T06:29:22;100621.81;;;-0.38;100.00
11542;BME280;5827;49.482;7.716;2023-02-14T06:31:24;100632.88;;;-0.44;100.00
11542;BME280;5827;49.482;7.716;2023-02-14T06:33:25;100626.75;;;-0.45;100.00
11542;BME280;5827;49.482;7.716;2023-02-14T06:35:27;100629.84;;;-0.40;100.00
11542;BME280;5827;49.482;7.716;2023-02-14T06:37:30;100628.19;;;-0.41;100.00
11542;BME280;5827;49.482;7.716;2023-02-14T06:39:31;100623.53;;;-0.48;100.00
11542;BME280;5827;49.482;7.716;2023-02-14T06:41:33;100630.84;;;-0.52;100.00
11542;BME280;5827;49.482;7.716;2023-02-14T06:43:35;100638.97;;;-0.44;100.00
11542;BME280;5827;49.482;7.716;2023-02-14T06:45:36;100637.03;;;-0.42;100.00
11542;BME280;5827;49.482;7.716;2023-02-14T06:47:38;100640.38;;;-0.40;100.00
11542;BME280;5827;49.482;7.716;2023-02-14T06:49:39;100634.84;;;-0.37;100.00
11542;BME280;5827;49.482;7.716;2023-02-14T06:51:41;100640.25;;;-0.38;100.00
11542;BME280;5827;49.482;7.716;2023-02-14T06:53:43;100636.19;;;-0.42;100.00
11542;BME280;5827;49.482;7.716;2023-02-14T06:55:45;100632.03;;;-0.45;100.00
11542;BME280;5827;49.482;7.716;2023-02-14T06:57:47;100637.03;;;-0.42;100.00
11542;BME280;5827;49.482;7.716;2023-02-14T06:59:48;100641.63;;;-0.55;100.00
11542;BME280;5827;49.482;7.716;2023-02-14T07:01:50;100643.09;;;-0.62;100.00
11542;BME280;5827;49.482;7.716;2023-02-14T07:03:51;100639.13;;;-0.57;100.00
11542;BME280;5827;49.482;7.716;2023-02-14T07:05:53;100642.50;;;-0.55;100.00
11542;BME280;5827;49.482;7.716;2023-02-14T07:07:55;100640.56;;;-0.53;100.00
11542;BME280;5827;49.482;7.716;2023-02-14T07:09:57;100639.13;;;-0.57;100.00
11542;BME280;5827;49.482;7.716;2023-02-14T07:11:59;100632.97;;;-0.46;100.00
11542;BME280;5827;49.482;7.716;2023-02-14T07:14:00;100632.09;;;-0.35;100.00
11542;BME280;5827;49.482;7.716;2023-02-14T07:16:02;100639.41;;;-0.39;100.00
11542;BME280;5827;49.482;7.716;2023-02-14T07:18:04;100635.19;;;-0.30;100.00
11542;BME280;5827;49.482;7.716;2023-02-14T07:20:10;100635.06;;;-0.29;100.00
11542;BME280;5827;49.482;7.716;2023-02-14T07:22:12;100637.56;;;-0.27;100.00
11542;BME280;5827;49.482;7.716;2023-02-14T07:24:13;100643.50;;;-0.46;100.00
11542;BME280;5827;49.482;7.716;2023-02-14T07:26:16;100637.09;;;-0.53;100.00
11542;BME280;5827;49.482;7.716;2023-02-14T07:28:18;100636.47;;;-0.45;100.00
11542;BME280;5827;49.482;7.716;2023-02-14T07:30:19;100634.22;;;-0.29;100.00
11542;BME280;5827;49.482;7.716;2023-02-14T07:32:21;100632.69;;;-0.32;100.00
11542;BME280;5827;49.482;7.716;2023-02-14T07:34:23;100624.72;;;-0.20;100.00
11542;BME280;5827;49.482;7.716;2023-02-14T07:36:24;100633.59;;;-0.21;100.00
11542;BME280;5827;49.482;7.716;2023-02-14T07:38:26;100629.47;;;-0.14;100.00
11542;BME280;5827;49.482;7.716;2023-02-14T07:40:29;100635.06;;;-0.08;100.00
11542;BME280;5827;49.482;7.716;2023-02-14T07:42:32;100631.47;;;-0.07;100.00
11542;BME280;5827;49.482;7.716;2023-02-14T07:44:34;100630.09;;;-0.01;100.00
11542;BME280;5827;49.482;7.716;2023-02-14T07:46:35;100627.53;;;0.09;100.00
11542;BME280;5827;49.482;7.716;2023-02-14T07:48:36;100631.47;;;-0.07;100.00
11542;BME280;5827;49.482;7.716;2023-02-14T07:50:38;100626.06;;;-0.05;100.00
11542;BME280;5827;49.482;7.716;2023-02-14T07:52:40;100626.41;;;0.02;100.00
11542;BME280;5827;49.482;7.716;2023-02-14T07:54:41;100626.63;;;-0.02;100.00
11542;BME280;5827;49.482;7.716;2023-02-14T07:56:43;100619.38;;;-0.09;100.00
11542;BME280;5827;49.482;7.716;2023-02-14T07:58:46;100625.09;;;-0.25;100.00
11542;BME280;5827;49.482;7.716;2023-02-14T08:00:49;100633.03;;;-0.04;100.00
11542;BME280;5827;49.482;7.716;2023-02-14T08:02:50;100629.22;;;0.10;100.00
11542;BME280;5827;49.482;7.716;2023-02-14T08:04:52;100628.25;;;0.11;100.00
11542;BME280;5827;49.482;7.716;2023-02-14T08:06:53;100632.78;;;0.30;100.00
11542;BME280;5827;49.482;7.716;2023-02-14T08:08:55;100635.94;;;0.54;100.00
11542;BME280;5827;49.482;7.716;2023-02-14T08:10:57;100639.00;;;0.59;100.00
11542;BME280;5827;49.482;7.716;2023-02-14T08:12:58;100637.69;;;0.74;100.00
11542;BME280;5827;49.482;7.716;2023-02-14T08:15:00;100639.09;;;0.79;100.00
11542;BME280;5827;49.482;7.716;2023-02-14T08:17:15;100638.56;;;0.85;100.00
11542;BME280;5827;49.482;7.716;2023-02-14T08:19:17;100639.31;;;0.96;100.00
11542;BME280;5827;49.482;7.716;2023-02-14T08:21:18;100643.06;;;1.04;100.00
11542;BME280;5827;49.482;7.716;2023-02-14T08:23:20;100643.88;;;1.04;100.00
11542;BME280;5827;49.482;7.716;2023-02-14T08:25:21;100640.25;;;1.05;100.00
11542;BME280;5827;49.482;7.716;2023-02-14T08:27:23;100638.50;;;1.15;100.00
11542;BME280;5827;49.482;7.716;2023-02-14T08:29:24;100637.38;;;1.18;100.00
11542;BME280;5827;49.482;7.716;2023-02-14T08:31:30;100642.97;;;1.24;100.00
11542;BME280;5827;49.482;7.716;2023-02-14T08:33:32;100638.22;;;1.28;100.00
11542;BME280;5827;49.482;7.716;2023-02-14T08:35:34;100640.88;;;1.28;100.00
11542;BME280;5827;49.482;7.716;2023-02-14T08:37:36;100645.88;;;1.31;100.00
11542;BME280;5827;49.482;7.716;2023-02-14T08:39:37;100641.72;;;1.38;100.00
11542;BME280;5827;49.482;7.716;2023-02-14T08:41:39;100641.44;;;1.51;100.00
11542;BME280;5827;49.482;7.716;2023-02-14T08:43:40;100643.66;;;1.56;100.00
11542;BME280;5827;49.482;7.716;2023-02-14T08:45:42;100642.56;;;1.58;100.00
11542;BME280;5827;49.482;7.716;2023-02-14T08:47:45;100639.91;;;1.68;100.00
11542;BME280;5827;49.482;7.716;2023-02-14T08:49:47;100640.63;;;1.70;100.00
11542;BME280;5827;49.482;7.716;2023-02-14T08:51:49;100639.09;;;1.67;100.00
11542;BME280;5827;49.482;7.716;2023-02-14T08:53:51;100631.00;;;1.69;100.00
11542;BME280;5827;49.482;7.716;2023-02-14T08:55:54;100634.91;;;1.65;100.00
11542;BME280;5827;49.482;7.716;2023-02-14T08:57:55;100638.66;;;1.82;100.00
11542;BME280;5827;49.482;7.716;2023-02-14T08:59:57;100636.44;;;1.77;100.00
11542;BME280;5827;49.482;7.716;2023-02-14T09:01:58;100633.22;;;1.83;100.00
11542;BME280;5827;49.482;7.716;2023-02-14T09:04:01;100636.31;;;1.88;100.00
11542;BME280;5827;49.482;7.716;2023-02-14T09:06:04;100632.38;;;1.92;100.00
11542;BME280;5827;49.482;7.716;2023-02-14T09:08:05;100645.59;;;2.02;100.00
11542;BME280;5827;49.482;7.716;2023-02-14T09:10:07;100640.28;;;2.12;100.00
11542;BME280;5827;49.482;7.716;2023-02-14T09:12:10;100640.28;;;2.12;100.00
11542;BME280;5827;49.482;7.716;2023-02-14T09:14:12;100637.53;;;2.03;100.00
11542;BME280;5827;49.482;7.716;2023-02-14T09:16:14;100633.19;;;2.12;100.00
11542;BME280;5827;49.482;7.716;2023-02-14T09:18:16;100637.19;;;2.26;100.00
11542;BME280;5827;49.482;7.716;2023-02-14T09:20:19;100636.59;;;2.32;100.00
11542;BME280;5827;49.482;7.716;2023-02-14T09:22:21;100632.47;;;2.29;100.00
11542;BME280;5827;49.482;7.716;2023-02-14T09:24:22;100634.75;;;2.42;100.00
11542;BME280;5827;49.482;7.716;2023-02-14T09:26:24;100633.59;;;2.54;100.00
11542;BME280;5827;49.482;7.716;2023-02-14T09:28:25;100626.63;;;2.26;100.00
11542;BME280;5827;49.482;7.716;2023-02-14T09:30:27;100628.63;;;2.42;100.00
11542;BME280;5827;49.482;7.716;2023-02-14T09:32:28;100628.34;;;2.45;100.00
11542;BME280;5827;49.482;7.716;2023-02-14T09:34:32;100624.00;;;2.53;100.00
11542;BME280;5827;49.482;7.716;2023-02-14T09:36:52;100631.25;;;2.79;100.00
11542;BME280;5827;49.482;7.716;2023-02-14T09:39:11;100617.28;;;2.87;100.00
11542;BME280;5827;49.482;7.716;2023-02-14T09:41:45;100625.25;;;2.87;100.00
11542;BME280;5827;49.482;7.716;2023-02-14T09:43:53;100621.47;;;2.89;100.00
11542;BME280;5827;49.482;7.716;2023-02-14T09:45:57;100622.78;;;3.03;100.00
11542;BME280;5827;49.482;7.716;2023-02-14T09:48:04;100622.84;;;3.11;100.00
11542;BME280;5827;49.482;7.716;2023-02-14T09:50:14;100623.50;;;3.23;100.00
11542;BME280;5827;49.482;7.716;2023-02-14T09:52:21;100621.50;;;3.25;100.00
11542;BME280;5827;49.482;7.716;2023-02-14T09:54:27;100613.13;;;3.12;100.00
11542;BME280;5827;49.482;7.716;2023-02-14T09:56:35;100617.56;;;3.29;100.00
11542;BME280;5827;49.482;7.716;2023-02-14T09:58:47;100610.41;;;3.39;100.00
11542;BME280;5827;49.482;7.716;2023-02-14T10:00:55;100610.84;;;3.52;100.00
11542;BME280;5827;49.482;7.716;2023-02-14T10:03:08;100611.38;;;3.56;100.00
11542;BME280;5827;49.482;7.716;2023-02-14T10:05:16;100604.50;;;3.63;100.00
11542;BME280;5827;49.482;7.716;2023-02-14T10:07:24;100606.00;;;3.66;100.00
11542;BME280;5827;49.482;7.716;2023-02-14T10:09:40;100597.34;;;3.81;100.00
11542;BME280;5827;49.482;7.716;2023-02-14T10:11:46;100603.00;;;3.87;100.00
11542;BME280;5827;49.482;7.716;2023-02-14T10:13:51;100597.09;;;3.93;100.00
11542;BME280;5827;49.482;7.716;2023-02-14T10:15:59;100598.34;;;4.06;100.00
11542;BME280;5827;49.482;7.716;2023-02-14T10:18:08;100591.53;;;4.04;100.00
11542;BME280;5827;49.482;7.716;2023-02-14T10:20:20;100594.97;;;4.22;100.00
11542;BME280;5827;49.482;7.716;2023-02-14T10:22:27;100590.53;;;4.31;100.00
11542;BME280;5827;49.482;7.716;2023-02-14T10:24:36;100594.03;;;4.31;100.00
11542;BME280;5827;49.482;7.716;2023-02-14T10:26:39;100586.97;;;4.48;100.00
11542;BME280;5827;49.482;7.716;2023-02-14T10:28:44;100589.53;;;4.32;100.00
11542;BME280;5827;49.482;7.716;2023-02-14T10:30:51;100582.41;;;4.32;100.00
11542;BME280;5827;49.482;7.716;2023-02-14T10:32:59;100589.78;;;4.97;100.00
11542;BME280;5827;49.482;7.716;2023-02-14T10:35:10;100592.47;;;5.05;100.00
11542;BME280;5827;49.482;7.716;2023-02-14T10:37:31;100586.84;;;5.00;100.00
11542;BME280;5827;49.482;7.716;2023-02-14T10:39:48;100583.19;;;5.18;100.00
11542;BME280;5827;49.482;7.716;2023-02-14T10:41:57;100583.19;;;5.09;100.00
11542;BME280;5827;49.482;7.716;2023-02-14T10:44:12;100591.53;;;5.39;100.00
11542;BME280;5827;49.482;7.716;2023-02-14T10:46:20;100583.75;;;5.46;100.00
11542;BME280;5827;49.482;7.716;2023-02-14T10:48:31;100579.59;;;5.51;100.00
11542;BME280;5827;49.482;7.716;2023-02-14T10:50:42;100581.91;;;5.63;100.00
11542;BME280;5827;49.482;7.716;2023-02-14T10:52:56;100584.06;;;5.67;100.00
11542;BME280;5827;49.482;7.716;2023-02-14T10:55:07;100577.91;;;5.67;100.00
11542;BME280;5827;49.482;7.716;2023-02-14T10:57:14;100575.94;;;5.36;100.00
11542;BME280;5827;49.482;7.716;2023-02-14T10:59:24;100581.09;;;5.46;100.00